Time;durP1;ratioP1;P1;durP2;ratioP2;P2;SDS_P1;SDS_P2;PMS_P1;PMS_P2;Temp;Humidity;BMP_temperature;BMP_pressure;BME280_temperature;BME280_humidity;BME280_pressure;Samples;Min_cycle;Max_cycle;Signal;HPM_P1;HPM_P2
2023/09/18 00:01:19;;;;;;;;;0.80;0.80;;;;;;;;5049610;28;8779;-80
2023/09/18 00:03:47;;;;;;;;;0.00;0.00;;;;;;;;5050284;28;8858;-79
2023/09/18 00:06:14;;;;;;;;;1.00;1.00;;;;;;;;5049987;28;8857;-79
2023/09/18 00:08:41;;;;;;;;;3.80;2.60;;;;;;;;5038117;28;8960;-79
2023/09/18 00:11:09;;;;;;;;;1.60;1.60;;;;;;;;5051739;28;8845;-78
2023/09/18 00:13:38;;;;;;;;;1.60;1.60;;;;;;;;5051733;28;8865;-78
2023/09/18 00:16:06;;;;;;;;;0.80;0.80;;;;;;;;5051407;28;8849;-78
2023/09/18 00:18:33;;;;;;;;;0.00;0.00;;;;;;;;5050881;28;8853;-79
2023/09/18 00:21:01;;;;;;;;;0.00;0.00;;;;;;;;5050169;28;8861;-79
2023/09/18 00:23:28;;;;;;;;;0.00;0.00;;;;;;;;5050146;28;9612;-79
2023/09/18 00:25:55;;;;;;;;;0.00;0.00;;;;;;;;5050160;28;8873;-79
2023/09/18 00:28:22;;;;;;;;;1.60;0.60;;;;;;;;5050095;28;8854;-79
2023/09/18 00:30:51;;;;;;;;;0.00;0.00;;;;;;;;5049638;28;8770;-83
2023/09/18 00:33:19;;;;;;;;;0.20;0.20;;;;;;;;5051021;28;8879;-79
2023/09/18 00:35:50;;;;;;;;;0.20;0.20;;;;;;;;5052571;28;8908;-79
2023/09/18 00:38:17;;;;;;;;;0.00;0.00;;;;;;;;5054728;28;8853;-79
2023/09/18 00:40:44;;;;;;;;;0.00;0.00;;;;;;;;5055251;28;8856;-79
2023/09/18 00:43:12;;;;;;;;;2.80;1.60;;;;;;;;5055542;28;8877;-79
2023/09/18 00:45:43;;;;;;;;;1.40;1.40;;;;;;;;5055327;28;8971;-79
2023/09/18 00:48:13;;;;;;;;;1.00;1.00;;;;;;;;5053847;28;8877;-85
2023/09/18 00:50:40;;;;;;;;;0.00;0.00;;;;;;;;5049215;28;8846;-85
2023/09/18 00:53:09;;;;;;;;;1.80;0.80;;;;;;;;5049708;28;8917;-87
2023/09/18 00:55:38;;;;;;;;;0.80;0.80;;;;;;;;5048549;28;8853;-86
2023/09/18 00:58:05;;;;;;;;;0.20;0.20;;;;;;;;5050020;28;8845;-79
2023/09/18 01:00:32;;;;;;;;;1.20;1.20;;;;;;;;5049436;28;8781;-78
2023/09/18 01:03:00;;;;;;;;;1.40;1.40;;;;;;;;5050116;28;8865;-78
2023/09/18 01:05:29;;;;;;;;;2.00;2.00;;;;;;;;5050156;28;8858;-80
2023/09/18 01:07:56;;;;;;;;;2.00;2.00;;;;;;;;5049173;28;8870;-79
2023/09/18 01:10:26;;;;;;;;;2.00;2.00;;;;;;;;5037474;28;8858;-80
2023/09/18 01:12:59;;;;;;;;;2.60;1.80;;;;;;;;5048491;28;8892;-79
2023/09/18 01:15:31;;;;;;;;;1.80;1.80;;;;;;;;5049496;28;8857;-78
2023/09/18 01:17:58;;;;;;;;;1.00;1.00;;;;;;;;5050375;28;9666;-82
2023/09/18 01:20:27;;;;;;;;;3.00;3.00;;;;;;;;5051511;28;8854;-80
2023/09/18 01:22:56;;;;;;;;;2.80;2.80;;;;;;;;5048999;28;8881;-80
2023/09/18 01:25:23;;;;;;;;;5.80;3.60;;;;;;;;5048770;28;8869;-85
2023/09/18 01:27:51;;;;;;;;;4.60;4.40;;;;;;;;5047653;28;8857;-80
2023/09/18 01:30:19;;;;;;;;;4.00;4.00;;;;;;;;5048497;28;8853;-82
2023/09/18 01:32:47;;;;;;;;;3.60;3.60;;;;;;;;5048831;28;8896;-82
2023/09/18 01:35:15;;;;;;;;;6.00;6.00;;;;;;;;5050015;28;9813;-81
2023/09/18 01:37:43;;;;;;;;;8.00;8.00;;;;;;;;5050443;28;8872;-79
2023/09/18 01:40:12;;;;;;;;;7.80;6.60;;;;;;;;5051025;28;8858;-79
2023/09/18 01:42:39;;;;;;;;;8.80;7.80;;;;;;;;5038016;28;8849;-79
2023/09/18 01:45:09;;;;;;;;;9.40;8.60;;;;;;;;5049453;28;8872;-80
2023/09/18 01:47:37;;;;;;;;;10.40;8.00;;;;;;;;5048395;28;8864;-80
2023/09/18 01:50:06;;;;;;;;;10.40;10.40;;;;;;;;5047628;28;8870;-78
2023/09/18 01:52:34;;;;;;;;;11.40;10.00;;;;;;;;5048576;28;8873;-79
2023/09/18 01:55:01;;;;;;;;;9.40;9.40;;;;;;;;5047906;28;10487;-83
2023/09/18 01:57:30;;;;;;;;;11.25;11.25;;;;;;;;5048405;28;8867;-79
2023/09/18 01:59:57;;;;;;;;;15.25;13.00;;;;;;;;5049146;28;8830;-79
2023/09/18 02:02:24;;;;;;;;;14.20;12.00;;;;;;;;5054548;28;8814;-79
2023/09/18 02:04:52;;;;;;;;;8.40;8.40;;;;;;;;5055142;28;9569;-83
2023/09/18 02:07:19;;;;;;;;;12.50;12.50;;;;;;;;5055366;28;8881;-80
2023/09/18 02:09:48;;;;;;;;;12.00;12.00;;;;;;;;5055529;28;8822;-85
2023/09/18 02:12:17;;;;;;;;;11.50;11.50;;;;;;;;5056483;28;8860;-79
2023/09/18 02:14:47;;;;;;;;;10.00;10.00;;;;;;;;5057613;28;9541;-78
2023/09/18 02:17:14;;;;;;;;;16.25;12.25;;;;;;;;5060093;28;8863;-82
2023/09/18 02:19:42;;;;;;;;;15.00;12.00;;;;;;;;5055382;28;8844;-79
2023/09/18 02:22:10;;;;;;;;;19.50;17.00;;;;;;;;5057379;28;8908;-80
2023/09/18 02:24:37;;;;;;;;;14.00;13.40;;;;;;;;5060692;28;8849;-79
2023/09/18 02:27:06;;;;;;;;;13.00;11.80;;;;;;;;5061116;28;8883;-78
2023/09/18 02:29:33;;;;;;;;;14.75;13.00;;;;;;;;5055880;28;9008;-84
2023/09/18 02:32:02;;;;;;;;;11.80;11.00;;;;;;;;5054190;28;9369;-81
2023/09/18 02:34:29;;;;;;;;;10.00;8.20;;;;;;;;5056053;28;8988;-91
2023/09/18 02:36:56;;;;;;;;;10.40;10.40;;;;;;;;5054337;28;8853;-84
2023/09/18 02:39:24;;;;;;;;;11.00;9.40;;;;;;;;5054452;28;8857;-81
2023/09/18 02:41:51;;;;;;;;;7.80;7.80;;;;;;;;5054587;28;8877;-89
2023/09/18 02:44:18;;;;;;;;;8.60;6.60;;;;;;;;5054788;28;9652;-83
2023/09/18 02:46:46;;;;;;;;;8.40;6.80;;;;;;;;5054860;28;8950;-80
2023/09/18 02:49:14;;;;;;;;;7.20;7.20;;;;;;;;5057850;28;8829;-82
2023/09/18 02:51:41;;;;;;;;;7.60;6.00;;;;;;;;5057600;28;8854;-87
2023/09/18 02:54:09;;;;;;;;;10.40;7.40;;;;;;;;5057828;28;8846;-83
2023/09/18 02:56:36;;;;;;;;;9.00;7.60;;;;;;;;5057249;28;8982;-91
2023/09/18 02:59:05;;;;;;;;;6.00;6.00;;;;;;;;5056883;28;8861;-79
2023/09/18 03:01:35;;;;;;;;;4.60;4.60;;;;;;;;5054924;28;8793;-87
2023/09/18 03:04:03;;;;;;;;;5.80;4.80;;;;;;;;5054034;28;8876;-90
2023/09/18 03:06:32;;;;;;;;;5.00;5.00;;;;;;;;5055340;28;8971;-83
2023/09/18 03:08:59;;;;;;;;;8.00;5.80;;;;;;;;5055601;28;8899;-88
2023/09/18 03:11:28;;;;;;;;;4.00;4.00;;;;;;;;5053078;28;8854;-82
2023/09/18 03:13:56;;;;;;;;;7.20;4.60;;;;;;;;5051758;28;8877;-81
2023/09/18 03:16:23;;;;;;;;;2.60;2.60;;;;;;;;5051344;28;8857;-83
2023/09/18 03:18:50;;;;;;;;;4.20;4.20;;;;;;;;5051272;28;8964;-86
2023/09/18 03:21:17;;;;;;;;;3.00;3.00;;;;;;;;5053168;28;8853;-85
2023/09/18 03:23:46;;;;;;;;;4.20;3.00;;;;;;;;5052933;28;9024;-82
2023/09/18 03:26:13;;;;;;;;;3.20;3.20;;;;;;;;5056529;28;8961;-85
2023/09/18 03:28:40;;;;;;;;;4.40;3.20;;;;;;;;5055379;28;8845;-87
2023/09/18 03:31:07;;;;;;;;;4.60;3.40;;;;;;;;5053611;28;8789;-90
2023/09/18 03:33:35;;;;;;;;;4.80;3.00;;;;;;;;5052362;28;8881;-80
2023/09/18 03:36:05;;;;;;;;;3.20;2.00;;;;;;;;5051445;28;8845;-79
2023/09/18 03:38:35;;;;;;;;;2.80;2.80;;;;;;;;5051089;28;8853;-79
2023/09/18 03:41:06;;;;;;;;;3.00;3.00;;;;;;;;5051217;28;8943;-79
2023/09/18 03:43:33;;;;;;;;;2.00;2.00;;;;;;;;5051068;28;8846;-79
2023/09/18 03:46:05;;;;;;;;;4.60;2.80;;;;;;;;5050049;28;8855;-78
2023/09/18 03:48:37;;;;;;;;;2.60;2.60;;;;;;;;5049890;28;8834;-81
2023/09/18 03:51:05;;;;;;;;;2.80;2.40;;;;;;;;5051267;28;8861;-85
2023/09/18 03:53:35;;;;;;;;;3.80;3.80;;;;;;;;5056451;28;8933;-81
2023/09/18 03:56:04;;;;;;;;;2.00;2.00;;;;;;;;5054751;28;8887;-85
2023/09/18 03:58:31;;;;;;;;;3.20;2.60;;;;;;;;5059014;28;8846;-83
2023/09/18 04:00:58;;;;;;;;;2.20;2.20;;;;;;;;5057445;28;8818;-87
2023/09/18 04:03:26;;;;;;;;;1.80;1.80;;;;;;;;5057826;28;8881;-86
2023/09/18 04:05:53;;;;;;;;;2.40;2.40;;;;;;;;5056004;28;8972;-83
2023/09/18 04:08:20;;;;;;;;;2.00;2.00;;;;;;;;5051816;28;8862;-81
2023/09/18 04:10:47;;;;;;;;;3.80;3.80;;;;;;;;5049163;28;8867;-81
2023/09/18 04:13:16;;;;;;;;;4.40;3.00;;;;;;;;5049641;28;8850;-83
2023/09/18 04:15:45;;;;;;;;;3.00;3.00;;;;;;;;5048644;28;9724;-82
2023/09/18 04:18:12;;;;;;;;;4.60;4.00;;;;;;;;5049272;28;8934;-81
2023/09/18 04:20:40;;;;;;;;;2.20;2.20;;;;;;;;5046235;28;8880;-82
2023/09/18 04:23:26;;;;;;;;;2.00;2.00;;;;;;;;5049213;28;9588;-79
2023/09/18 04:25:54;;;;;;;;;2.00;2.00;;;;;;;;5038780;28;9666;-81
2023/09/18 04:28:23;;;;;;;;;2.00;2.00;;;;;;;;5049814;28;8990;-82
2023/09/18 04:30:50;;;;;;;;;3.00;3.00;;;;;;;;5050887;28;8798;-86
2023/09/18 04:33:18;;;;;;;;;2.40;1.20;;;;;;;;5049726;28;8861;-81
2023/09/18 04:35:45;;;;;;;;;3.40;2.20;;;;;;;;5050923;28;8888;-82
2023/09/18 04:38:19;;;;;;;;;3.40;3.40;;;;;;;;5050490;28;8864;-83
2023/09/18 04:40:46;;;;;;;;;4.60;3.60;;;;;;;;5049435;28;8880;-82
2023/09/18 04:43:14;;;;;;;;;0.80;0.80;;;;;;;;5049419;28;8907;-85
2023/09/18 04:45:44;;;;;;;;;6.40;4.00;;;;;;;;5048872;28;9611;-82
2023/09/18 04:48:12;;;;;;;;;4.00;4.00;;;;;;;;5048644;28;8853;-80
2023/09/18 04:50:39;;;;;;;;;4.75;4.75;;;;;;;;5048986;28;9011;-81
2023/09/18 04:53:06;;;;;;;;;6.50;5.50;;;;;;;;5048369;28;8865;-81
2023/09/18 04:55:33;;;;;;;;;4.25;4.25;;;;;;;;5049026;28;9666;-81
2023/09/18 04:58:00;;;;;;;;;2.75;2.75;;;;;;;;5047344;28;8895;-81
2023/09/18 05:00:29;;;;;;;;;4.50;3.00;;;;;;;;5047756;28;8848;-80
2023/09/18 05:03:00;;;;;;;;;5.50;5.00;;;;;;;;5047732;28;8962;-80
2023/09/18 05:05:30;;;;;;;;;4.75;4.75;;;;;;;;5047925;28;8873;-72
2023/09/18 05:07:57;;;;;;;;;4.50;4.50;;;;;;;;5048160;28;8871;-72
2023/09/18 05:10:24;;;;;;;;;6.50;4.25;;;;;;;;5047379;28;8976;-76
2023/09/18 05:12:58;;;;;;;;;4.25;4.25;;;;;;;;5048020;28;8849;-72
2023/09/18 05:15:26;;;;;;;;;6.75;6.00;;;;;;;;5047786;28;8861;-72
2023/09/18 05:17:57;;;;;;;;;7.25;7.25;;;;;;;;5047585;28;8869;-71
2023/09/18 05:20:29;;;;;;;;;7.25;6.50;;;;;;;;5047237;28;8845;-71
2023/09/18 05:22:57;;;;;;;;;8.25;8.25;;;;;;;;5048103;28;8923;-71
2023/09/18 05:25:25;;;;;;;;;9.25;7.50;;;;;;;;5047318;28;8972;-71
2023/09/18 05:27:55;;;;;;;;;6.50;6.50;;;;;;;;5048041;28;8865;-71
2023/09/18 05:30:27;;;;;;;;;8.50;6.00;;;;;;;;5048213;28;8916;-71
2023/09/18 05:32:55;;;;;;;;;9.00;9.00;;;;;;;;5050980;28;9011;-71
2023/09/18 05:35:23;;;;;;;;;12.25;10.50;;;;;;;;5050647;28;8889;-71
2023/09/18 05:37:52;;;;;;;;;8.50;6.75;;;;;;;;5050188;28;8980;-71
2023/09/18 05:40:21;;;;;;;;;8.75;8.25;;;;;;;;5050748;28;8861;-71
2023/09/18 05:42:49;;;;;;;;;7.00;7.00;;;;;;;;5051014;28;8897;-71
2023/09/18 05:45:16;;;;;;;;;10.00;10.00;;;;;;;;5047562;28;8865;-74
2023/09/18 05:47:43;;;;;;;;;5.25;5.25;;;;;;;;5046810;28;9000;-71
2023/09/18 05:50:14;;;;;;;;;7.75;7.75;;;;;;;;5048002;28;8885;-73
2023/09/18 05:52:42;;;;;;;;;10.00;10.00;;;;;;;;5046791;28;8857;-71
2023/09/18 05:55:11;;;;;;;;;9.00;9.00;;;;;;;;5047490;28;8893;-71
2023/09/18 05:57:38;;;;;;;;;9.00;7.50;;;;;;;;5046891;28;8887;-71
2023/09/18 06:00:07;;;;;;;;;7.25;7.25;;;;;;;;5047156;28;8863;-73
2023/09/18 06:02:34;;;;;;;;;8.50;8.50;;;;;;;;5046953;28;8849;-71
2023/09/18 06:05:06;;;;;;;;;7.25;7.25;;;;;;;;5047132;28;9712;-71
2023/09/18 06:07:33;;;;;;;;;6.75;6.75;;;;;;;;5046815;28;8849;-70
2023/09/18 06:10:00;;;;;;;;;7.25;7.25;;;;;;;;5047366;28;9529;-71
2023/09/18 06:12:29;;;;;;;;;8.75;8.75;;;;;;;;5047100;28;8865;-73
2023/09/18 06:14:57;;;;;;;;;7.00;7.00;;;;;;;;5047426;28;9235;-71
2023/09/18 06:17:25;;;;;;;;;6.75;6.75;;;;;;;;5046169;28;8976;-71
2023/09/18 06:19:52;;;;;;;;;6.25;6.25;;;;;;;;5047025;28;8872;-71
2023/09/18 06:22:20;;;;;;;;;5.50;5.50;;;;;;;;5046319;28;8869;-72
2023/09/18 06:24:47;;;;;;;;;7.25;6.75;;;;;;;;5046889;28;8865;-71
2023/09/18 06:27:14;;;;;;;;;8.50;6.50;;;;;;;;5047004;28;8972;-71
2023/09/18 06:29:43;;;;;;;;;7.75;7.75;;;;;;;;5046174;28;8959;-71
2023/09/18 06:32:10;;;;;;;;;8.00;5.75;;;;;;;;5046000;28;8816;-72
2023/09/18 06:34:38;;;;;;;;;9.00;8.50;;;;;;;;5046850;28;8864;-73
2023/09/18 06:37:07;;;;;;;;;4.80;4.80;;;;;;;;5035365;28;8873;-71
2023/09/18 06:39:34;;;;;;;;;9.00;5.60;;;;;;;;5046697;28;8888;-75
2023/09/18 06:42:01;;;;;;;;;9.50;7.75;;;;;;;;5046375;28;8845;-71
2023/09/18 06:44:29;;;;;;;;;6.50;5.75;;;;;;;;5045820;28;8869;-72
2023/09/18 06:46:57;;;;;;;;;5.60;5.60;;;;;;;;5047350;28;8963;-72
2023/09/18 06:49:25;;;;;;;;;5.40;5.40;;;;;;;;5049775;28;8988;-71
2023/09/18 06:51:52;;;;;;;;;7.50;6.75;;;;;;;;5050385;28;9643;-71
2023/09/18 06:54:20;;;;;;;;;6.75;6.75;;;;;;;;5050158;28;8873;-71
2023/09/18 06:56:47;;;;;;;;;5.80;5.80;;;;;;;;5050412;28;8849;-71
2023/09/18 06:59:14;;;;;;;;;9.00;7.50;;;;;;;;5050137;28;8849;-71
2023/09/18 07:01:42;;;;;;;;;5.20;4.00;;;;;;;;5049812;28;8902;-71
2023/09/18 07:04:10;;;;;;;;;5.20;5.20;;;;;;;;5050255;28;8857;-71
2023/09/18 07:06:38;;;;;;;;;5.60;5.60;;;;;;;;5050689;28;8845;-71
2023/09/18 07:09:06;;;;;;;;;6.20;6.20;;;;;;;;5051663;28;8864;-71
2023/09/18 07:11:34;;;;;;;;;8.40;8.40;;;;;;;;5053776;28;8865;-71
2023/09/18 07:14:06;;;;;;;;;6.00;6.00;;;;;;;;5053905;28;8883;-71
2023/09/18 07:16:33;;;;;;;;;5.60;5.60;;;;;;;;5053360;28;8875;-73
2023/09/18 07:19:01;;;;;;;;;8.60;8.60;;;;;;;;5054403;28;8891;-71
2023/09/18 07:21:29;;;;;;;;;7.60;7.60;;;;;;;;5051200;28;8853;-72
2023/09/18 07:23:57;;;;;;;;;8.80;6.80;;;;;;;;5049286;28;8845;-72
2023/09/18 07:26:24;;;;;;;;;9.80;8.60;;;;;;;;5049699;28;8849;-72
2023/09/18 07:28:51;;;;;;;;;6.00;6.00;;;;;;;;5049565;28;8873;-71
2023/09/18 07:31:18;;;;;;;;;9.40;7.40;;;;;;;;5049461;28;8804;-75
2023/09/18 07:33:45;;;;;;;;;9.60;8.20;;;;;;;;5048976;28;8862;-71
2023/09/18 07:36:15;;;;;;;;;5.80;5.80;;;;;;;;5049718;28;8879;-71
2023/09/18 07:38:44;;;;;;;;;5.80;5.80;;;;;;;;5036999;28;8845;-71
2023/09/18 07:41:11;;;;;;;;;5.20;5.20;;;;;;;;5049305;28;8904;-72
2023/09/18 07:43:39;;;;;;;;;5.00;5.00;;;;;;;;5049722;28;8943;-72
2023/09/18 07:46:07;;;;;;;;;8.80;7.80;;;;;;;;5049639;28;9717;-72
2023/09/18 07:48:34;;;;;;;;;8.00;8.00;;;;;;;;5049356;28;8845;-72
2023/09/18 07:51:03;;;;;;;;;5.20;3.60;;;;;;;;5048780;28;8846;-71
2023/09/18 07:53:32;;;;;;;;;8.40;8.40;;;;;;;;5049033;28;8868;-72
2023/09/18 07:56:01;;;;;;;;;8.60;8.60;;;;;;;;5049157;28;8841;-75
2023/09/18 07:58:29;;;;;;;;;7.40;7.40;;;;;;;;5048356;28;8872;-74
2023/09/18 08:00:57;;;;;;;;;5.40;5.40;;;;;;;;5048376;28;8809;-71
2023/09/18 08:03:24;;;;;;;;;7.60;7.60;;;;;;;;5048968;28;8858;-72
2023/09/18 08:05:53;;;;;;;;;9.60;6.60;;;;;;;;5048911;28;9726;-71
2023/09/18 08:08:21;;;;;;;;;6.20;6.20;;;;;;;;5049324;28;8872;-71
2023/09/18 08:10:48;;;;;;;;;7.40;7.40;;;;;;;;5048867;28;8968;-71
2023/09/18 08:13:17;;;;;;;;;6.00;6.00;;;;;;;;5048746;28;8883;-71
2023/09/18 08:15:45;;;;;;;;;8.40;8.40;;;;;;;;5047859;28;8878;-71
2023/09/18 08:18:13;;;;;;;;;9.60;7.80;;;;;;;;5049060;28;9000;-72
2023/09/18 08:20:42;;;;;;;;;5.80;5.80;;;;;;;;5048358;28;8843;-71
2023/09/18 08:23:09;;;;;;;;;6.20;6.20;;;;;;;;5049399;28;8932;-71
2023/09/18 08:25:37;;;;;;;;;7.40;6.00;;;;;;;;5048545;28;8868;-71
2023/09/18 08:28:06;;;;;;;;;5.00;5.00;;;;;;;;5048589;28;8853;-74
2023/09/18 08:30:36;;;;;;;;;6.20;5.80;;;;;;;;5047883;28;8780;-71
2023/09/18 08:33:04;;;;;;;;;5.40;5.40;;;;;;;;5048066;28;8881;-71
2023/09/18 08:35:32;;;;;;;;;6.80;5.80;;;;;;;;5048726;28;9648;-72
2023/09/18 08:37:59;;;;;;;;;7.00;6.80;;;;;;;;5048185;28;8872;-71
2023/09/18 08:40:26;;;;;;;;;6.40;5.60;;;;;;;;5048597;28;8865;-73
2023/09/18 08:42:54;;;;;;;;;7.20;7.20;;;;;;;;5047772;28;8849;-71
2023/09/18 08:45:27;;;;;;;;;5.20;5.20;;;;;;;;5051045;28;8877;-71
2023/09/18 08:47:56;;;;;;;;;5.40;5.40;;;;;;;;5050551;28;8836;-71
2023/09/18 08:50:24;;;;;;;;;6.40;6.40;;;;;;;;5052315;28;8861;-72
2023/09/18 08:52:52;;;;;;;;;6.00;4.80;;;;;;;;5051954;28;8911;-71
2023/09/18 08:55:19;;;;;;;;;5.80;5.80;;;;;;;;5052607;28;8879;-71
2023/09/18 08:57:47;;;;;;;;;3.80;3.80;;;;;;;;5051424;28;8861;-71
2023/09/18 09:00:17;;;;;;;;;6.00;6.00;;;;;;;;5049450;28;8892;-71
2023/09/18 09:02:44;;;;;;;;;4.00;4.00;;;;;;;;5048070;28;8849;-71
2023/09/18 09:05:13;;;;;;;;;4.20;4.20;;;;;;;;5048132;28;8889;-72
2023/09/18 09:07:40;;;;;;;;;5.80;5.20;;;;;;;;5047333;28;8887;-71
2023/09/18 09:10:08;;;;;;;;;5.80;5.80;;;;;;;;5047704;28;8924;-71
2023/09/18 09:12:54;;;;;;;;;6.00;4.80;;;;;;;;5047631;28;8837;-79
2023/09/18 09:15:22;;;;;;;;;7.00;6.60;;;;;;;;5048372;28;9040;-72
2023/09/18 09:17:51;;;;;;;;;4.60;4.60;;;;;;;;5047810;28;8856;-71
2023/09/18 09:20:20;;;;;;;;;8.20;7.40;;;;;;;;5047306;28;9644;-71
2023/09/18 09:22:47;;;;;;;;;5.20;5.20;;;;;;;;5047460;28;8872;-71
2023/09/18 09:25:26;;;;;;;;;4.20;4.20;;;;;;;;5047093;28;8854;-70
2023/09/18 09:27:54;;;;;;;;;5.40;5.20;;;;;;;;5047466;28;8861;-72
2023/09/18 09:30:23;;;;;;;;;5.20;5.20;;;;;;;;5046216;28;8876;-71
2023/09/18 09:32:52;;;;;;;;;5.00;5.00;;;;;;;;5047572;28;8853;-71
2023/09/18 09:35:26;;;;;;;;;5.00;5.00;;;;;;;;5047226;28;8857;-72
2023/09/18 09:37:57;;;;;;;;;5.20;5.20;;;;;;;;5047100;28;9635;-71
2023/09/18 09:40:25;;;;;;;;;7.60;5.60;;;;;;;;5035050;28;9662;-72
2023/09/18 09:43:00;;;;;;;;;3.20;3.20;;;;;;;;5047088;28;8873;-72
2023/09/18 09:45:29;;;;;;;;;4.80;4.60;;;;;;;;5047262;28;8880;-73
2023/09/18 09:47:58;;;;;;;;;3.80;3.80;;;;;;;;5046569;28;9655;-72
2023/09/18 09:50:26;;;;;;;;;5.40;5.40;;;;;;;;5047195;28;8883;-71
2023/09/18 09:52:55;;;;;;;;;5.00;3.60;;;;;;;;5046661;28;8866;-72
2023/09/18 09:55:28;;;;;;;;;3.20;3.20;;;;;;;;5047060;28;8995;-72
2023/09/18 09:57:59;;;;;;;;;4.40;4.40;;;;;;;;5047412;28;8850;-73
2023/09/18 10:00:31;;;;;;;;;3.40;3.40;;;;;;;;5046224;28;8833;-73
2023/09/18 10:03:00;;;;;;;;;4.20;4.20;;;;;;;;5046186;28;8875;-71
2023/09/18 10:05:33;;;;;;;;;4.00;4.00;;;;;;;;5046752;28;8942;-72
2023/09/18 10:08:03;;;;;;;;;4.20;4.20;;;;;;;;5036281;28;8869;-72
2023/09/18 10:10:33;;;;;;;;;5.60;5.60;;;;;;;;5046331;28;8942;-71
2023/09/18 10:13:05;;;;;;;;;2.00;2.00;;;;;;;;5047407;28;8879;-71
2023/09/18 10:15:38;;;;;;;;;3.60;3.60;;;;;;;;5047175;28;8845;-72
2023/09/18 10:18:08;;;;;;;;;4.20;4.20;;;;;;;;5043235;28;8864;-79
2023/09/18 10:20:43;;;;;;;;;3.00;3.00;;;;;;;;5037858;28;9616;-74
2023/09/18 10:23:23;;;;;;;;;5.60;5.20;;;;;;;;5052503;28;8854;-72
2023/09/18 10:25:55;;;;;;;;;5.00;5.00;;;;;;;;5053647;28;8849;-73
2023/09/18 10:28:30;;;;;;;;;4.00;4.00;;;;;;;;5049822;28;8873;-73
2023/09/18 10:30:59;;;;;;;;;3.60;3.60;;;;;;;;5054412;28;8773;-74
2023/09/18 10:33:27;;;;;;;;;3.80;3.80;;;;;;;;5053769;28;8908;-75
2023/09/18 10:35:58;;;;;;;;;2.00;2.00;;;;;;;;5052057;28;8856;-75
2023/09/18 10:38:26;;;;;;;;;4.40;4.40;;;;;;;;5051701;28;8864;-74
2023/09/18 10:40:54;;;;;;;;;3.00;3.00;;;;;;;;5052172;28;8884;-73
2023/09/18 10:43:21;;;;;;;;;2.00;2.00;;;;;;;;5051402;28;8842;-74
2023/09/18 10:45:51;;;;;;;;;3.40;3.40;;;;;;;;5051464;28;8857;-74
2023/09/18 10:48:20;;;;;;;;;2.60;2.60;;;;;;;;5050197;28;8849;-74
2023/09/18 10:50:47;;;;;;;;;3.40;3.40;;;;;;;;5050883;28;8841;-73
2023/09/18 10:53:15;;;;;;;;;3.40;3.40;;;;;;;;5049742;28;8861;-75
2023/09/18 10:55:44;;;;;;;;;3.00;3.00;;;;;;;;5050025;28;8874;-75
2023/09/18 10:58:11;;;;;;;;;3.00;3.00;;;;;;;;5051108;28;8891;-73
2023/09/18 11:00:38;;;;;;;;;3.20;3.00;;;;;;;;5049375;28;8777;-74
2023/09/18 11:03:17;;;;;;;;;2.40;2.40;;;;;;;;5050344;28;8849;-74
2023/09/18 11:05:46;;;;;;;;;2.00;2.00;;;;;;;;5049871;28;8873;-74
2023/09/18 11:08:28;;;;;;;;;3.60;3.00;;;;;;;;5050640;28;9660;-74
2023/09/18 11:11:11;;;;;;;;;4.40;3.20;;;;;;;;5049852;28;8841;-72
2023/09/18 11:13:41;;;;;;;;;4.60;2.00;;;;;;;;5050006;28;8861;-72
2023/09/18 11:16:20;;;;;;;;;1.80;1.80;;;;;;;;5039210;28;8861;-72
2023/09/18 11:18:53;;;;;;;;;3.80;3.80;;;;;;;;5049528;28;8838;-75
2023/09/18 11:21:25;;;;;;;;;1.80;1.80;;;;;;;;5050022;28;9644;-72
2023/09/18 11:24:04;;;;;;;;;1.00;1.00;;;;;;;;5049709;28;8980;-71
2023/09/18 11:26:31;;;;;;;;;2.80;2.00;;;;;;;;5049509;28;8853;-73
2023/09/18 11:29:01;;;;;;;;;1.60;1.60;;;;;;;;5049815;28;8856;-73
2023/09/18 11:31:48;;;;;;;;;2.40;1.80;;;;;;;;5048626;28;8801;-72
2023/09/18 11:34:20;;;;;;;;;1.80;1.80;;;;;;;;5049071;28;8842;-73
2023/09/18 11:36:47;;;;;;;;;2.40;2.40;;;;;;;;5049548;28;8943;-74
2023/09/18 11:39:35;;;;;;;;;2.60;2.00;;;;;;;;5049945;28;8853;-74
2023/09/18 11:42:10;;;;;;;;;3.40;2.40;;;;;;;;5038572;28;8861;-76
2023/09/18 11:44:41;;;;;;;;;2.60;1.80;;;;;;;;5049220;28;8813;-73
2023/09/18 11:47:12;;;;;;;;;0.80;0.80;;;;;;;;5050141;28;8872;-73
2023/09/18 11:49:42;;;;;;;;;2.00;2.00;;;;;;;;5049699;28;8976;-73
2023/09/18 11:52:09;;;;;;;;;1.00;1.00;;;;;;;;5050192;28;8865;-73
2023/09/18 11:54:41;;;;;;;;;2.00;1.00;;;;;;;;5048842;28;8853;-73
2023/09/18 11:57:08;;;;;;;;;0.00;0.00;;;;;;;;5050400;28;8849;-73
2023/09/18 11:59:38;;;;;;;;;1.20;1.20;;;;;;;;5052057;28;8903;-73
2023/09/18 12:02:08;;;;;;;;;2.60;2.60;;;;;;;;5053048;28;8813;-73
2023/09/18 12:04:35;;;;;;;;;1.00;1.00;;;;;;;;5053240;28;8922;-73
2023/09/18 12:07:04;;;;;;;;;1.60;1.60;;;;;;;;5053093;28;8853;-73
2023/09/18 12:09:32;;;;;;;;;2.00;2.00;;;;;;;;5050677;28;8849;-73
2023/09/18 12:12:03;;;;;;;;;1.00;1.00;;;;;;;;5049167;28;8938;-76
2023/09/18 12:14:32;;;;;;;;;0.60;0.60;;;;;;;;5049252;28;9679;-73
2023/09/18 12:17:01;;;;;;;;;0.00;0.00;;;;;;;;5050502;28;8830;-78
2023/09/18 12:19:29;;;;;;;;;0.80;0.80;;;;;;;;5050766;28;8895;-78
2023/09/18 12:21:56;;;;;;;;;0.60;0.60;;;;;;;;5048902;28;8853;-81
2023/09/18 12:24:23;;;;;;;;;1.00;1.00;;;;;;;;5048712;28;8833;-72
2023/09/18 12:26:51;;;;;;;;;1.00;1.00;;;;;;;;5049047;28;8857;-72
2023/09/18 12:29:20;;;;;;;;;1.20;1.20;;;;;;;;5049235;28;8991;-80
2023/09/18 12:31:50;;;;;;;;;1.20;1.20;;;;;;;;5048258;28;8842;-71
2023/09/18 12:34:18;;;;;;;;;1.00;1.00;;;;;;;;5049924;28;8875;-77
2023/09/18 12:36:47;;;;;;;;;1.20;1.20;;;;;;;;5050153;28;8891;-71
2023/09/18 12:39:16;;;;;;;;;1.00;1.00;;;;;;;;5049350;28;8857;-71
2023/09/18 12:41:43;;;;;;;;;2.80;2.00;;;;;;;;5047923;28;9236;-77
2023/09/18 12:44:11;;;;;;;;;3.40;1.80;;;;;;;;5048583;28;8885;-76
2023/09/18 12:46:41;;;;;;;;;0.00;0.00;;;;;;;;5047870;28;8854;-71
2023/09/18 12:49:19;;;;;;;;;1.00;1.00;;;;;;;;5047916;28;8884;-71
2023/09/18 12:51:56;;;;;;;;;1.80;1.80;;;;;;;;5036781;28;8877;-71
2023/09/18 12:54:36;;;;;;;;;0.60;0.60;;;;;;;;5047970;28;8845;-71
2023/09/18 12:57:06;;;;;;;;;0.00;0.00;;;;;;;;5048013;28;9597;-71
2023/09/18 12:59:33;;;;;;;;;0.60;0.60;;;;;;;;5047437;28;8866;-71
2023/09/18 13:02:04;;;;;;;;;0.80;0.80;;;;;;;;5047785;28;8833;-70
2023/09/18 13:04:31;;;;;;;;;1.00;1.00;;;;;;;;5047224;28;8849;-71
2023/09/18 13:07:08;;;;;;;;;1.00;1.00;;;;;;;;5048243;28;8838;-72
2023/09/18 13:09:37;;;;;;;;;1.60;1.60;;;;;;;;5047945;28;8901;-71
2023/09/18 13:12:05;;;;;;;;;1.00;1.00;;;;;;;;5047923;28;8895;-71
2023/09/18 13:14:58;;;;;;;;;1.00;1.00;;;;;;;;5047633;28;8861;-71
2023/09/18 13:17:27;;;;;;;;;0.80;0.80;;;;;;;;5047467;28;8849;-71
2023/09/18 13:19:54;;;;;;;;;0.20;0.20;;;;;;;;5047605;28;8983;-71
2023/09/18 13:22:25;;;;;;;;;0.00;0.00;;;;;;;;5046839;28;9619;-71
2023/09/18 13:24:57;;;;;;;;;0.00;0.00;;;;;;;;5047934;28;8926;-72
2023/09/18 13:27:25;;;;;;;;;2.00;2.00;;;;;;;;5036402;28;8850;-72
2023/09/18 13:29:54;;;;;;;;;0.60;0.60;;;;;;;;5047126;28;8849;-71
2023/09/18 13:32:22;;;;;;;;;1.00;0.00;;;;;;;;5047368;28;8790;-72
2023/09/18 13:34:50;;;;;;;;;3.00;1.20;;;;;;;;5048324;28;8876;-72
2023/09/18 13:37:20;;;;;;;;;1.40;1.40;;;;;;;;5050119;28;8849;-72
2023/09/18 13:39:47;;;;;;;;;1.00;1.00;;;;;;;;5050071;28;8877;-72
2023/09/18 13:42:14;;;;;;;;;0.80;0.80;;;;;;;;5050667;28;8939;-73
2023/09/18 13:44:41;;;;;;;;;2.00;2.00;;;;;;;;5050400;28;8853;-72
2023/09/18 13:47:08;;;;;;;;;2.00;1.00;;;;;;;;5050804;28;8879;-73
2023/09/18 13:49:36;;;;;;;;;0.60;0.60;;;;;;;;5046720;28;9673;-73
2023/09/18 13:52:05;;;;;;;;;1.00;1.00;;;;;;;;5048133;28;8857;-75
2023/09/18 13:54:32;;;;;;;;;0.80;0.00;;;;;;;;5047946;28;8864;-74
2023/09/18 13:57:00;;;;;;;;;1.80;1.60;;;;;;;;5048231;28;8872;-77
2023/09/18 13:59:32;;;;;;;;;0.60;0.60;;;;;;;;5047053;28;8980;-77
2023/09/18 14:01:59;;;;;;;;;1.00;1.00;;;;;;;;5046553;28;8798;-78
2023/09/18 14:04:29;;;;;;;;;0.40;0.40;;;;;;;;5046447;28;8883;-72
2023/09/18 14:06:56;;;;;;;;;1.00;1.00;;;;;;;;5047406;28;8857;-76
2023/09/18 14:09:28;;;;;;;;;0.20;0.20;;;;;;;;5046830;28;8879;-72
2023/09/18 14:11:56;;;;;;;;;1.20;1.20;;;;;;;;5046722;28;8883;-72
2023/09/18 14:14:26;;;;;;;;;0.00;0.00;;;;;;;;5047091;28;8842;-72
2023/09/18 14:16:53;;;;;;;;;1.20;1.20;;;;;;;;5046982;28;8896;-72
2023/09/18 14:19:20;;;;;;;;;3.00;3.00;;;;;;;;5047170;28;8869;-72
2023/09/18 14:21:49;;;;;;;;;1.40;1.40;;;;;;;;5046279;28;8877;-72
2023/09/18 14:24:17;;;;;;;;;1.00;1.00;;;;;;;;5047454;28;8911;-72
2023/09/18 14:26:48;;;;;;;;;2.20;1.00;;;;;;;;5046698;28;8841;-73
2023/09/18 14:29:16;;;;;;;;;1.00;1.00;;;;;;;;5047148;28;8922;-72
2023/09/18 14:31:43;;;;;;;;;1.80;1.80;;;;;;;;5046228;28;8955;-72
2023/09/18 14:34:10;;;;;;;;;1.20;1.20;;;;;;;;5046800;28;8867;-75
2023/09/18 14:36:38;;;;;;;;;2.20;2.20;;;;;;;;5046453;28;8861;-72
2023/09/18 14:39:08;;;;;;;;;2.40;2.40;;;;;;;;5047198;28;8857;-72
2023/09/18 14:41:35;;;;;;;;;1.20;1.20;;;;;;;;5046016;28;9632;-74
2023/09/18 14:44:04;;;;;;;;;0.20;0.20;;;;;;;;5046849;28;8853;-72
2023/09/18 14:46:33;;;;;;;;;0.60;0.60;;;;;;;;5046331;28;8849;-78
2023/09/18 14:49:00;;;;;;;;;0.00;0.00;;;;;;;;5046776;28;8834;-76
2023/09/18 14:51:28;;;;;;;;;0.40;0.00;;;;;;;;5046101;28;8865;-72
2023/09/18 14:53:55;;;;;;;;;0.00;0.00;;;;;;;;5046598;28;8931;-72
2023/09/18 14:56:22;;;;;;;;;0.00;0.00;;;;;;;;5046384;28;8846;-72
2023/09/18 14:58:51;;;;;;;;;0.20;0.20;;;;;;;;5047012;28;9617;-72
2023/09/18 15:01:20;;;;;;;;;0.00;0.00;;;;;;;;5045970;28;8818;-72
2023/09/18 15:03:50;;;;;;;;;0.20;0.20;;;;;;;;5046680;28;8877;-71
2023/09/18 15:06:17;;;;;;;;;0.00;0.00;;;;;;;;5046699;28;8889;-72